createdAt,value
2023-04-02T00:01:02.128Z,89.07
2023-04-02T00:03:43.132Z,89.05
2023-04-02T00:06:26.146Z,89.12
2023-04-02T00:08:54.061Z,89.20
2023-04-02T00:11:32.430Z,89.23
2023-04-02T00:14:04.037Z,89.33
2023-04-02T00:16:32.631Z,89.46
2023-04-02T00:19:04.054Z,89.60
2023-04-02T00:21:37.259Z,89.66
2023-04-02T00:24:20.574Z,89.77
2023-04-02T00:26:53.082Z,89.81
2023-04-02T00:29:21.499Z,89.85
2023-04-02T00:31:52.628Z,89.86
2023-04-02T00:34:23.514Z,89.85
2023-04-02T00:36:52.413Z,89.88
2023-04-02T00:39:25.333Z,89.88
2023-04-02T00:41:54.047Z,89.89
2023-04-02T00:44:28.226Z,89.91
2023-04-02T00:46:56.252Z,89.87
2023-04-02T00:49:27.187Z,89.84
2023-04-02T00:52:00.506Z,89.84
2023-04-02T00:54:31.220Z,89.84
2023-04-02T00:56:59.252Z,89.87
2023-04-02T00:59:34.930Z,89.79
2023-04-02T01:02:15.217Z,89.73
2023-04-02T01:04:52.905Z,89.67
2023-04-02T01:07:25.018Z,89.66
2023-04-02T01:09:52.879Z,89.66
2023-04-02T01:12:47.801Z,89.65
2023-04-02T01:15:20.603Z,89.69
2023-04-02T01:17:48.629Z,89.69
2023-04-02T01:20:22.699Z,89.72
2023-04-02T01:22:59.786Z,89.69
2023-04-02T01:25:36.413Z,89.69
2023-04-02T01:28:26.870Z,89.69
2023-04-02T01:30:56.736Z,89.69
2023-04-02T01:33:29.472Z,89.67
2023-04-02T01:36:29.774Z,89.66
2023-04-02T01:39:03.727Z,89.62
2023-04-02T01:41:39.982Z,89.59
2023-04-02T01:44:09.763Z,89.61
2023-04-02T01:46:40.031Z,89.62
2023-04-02T01:49:13.807Z,89.62
2023-04-02T01:51:47.437Z,89.61
2023-04-02T01:54:17.650Z,89.59
2023-04-02T01:56:45.946Z,89.55
2023-04-02T01:59:15.476Z,89.55
2023-04-02T02:01:52.170Z,89.55
2023-04-02T02:04:25.734Z,89.56
2023-04-02T02:06:53.796Z,89.58
2023-04-02T02:10:02.158Z,89.58
2023-04-02T02:12:37.709Z,89.58
2023-04-02T02:15:14.702Z,89.59
2023-04-02T02:17:48.517Z,89.62
2023-04-02T02:20:22.608Z,89.62
2023-04-02T02:23:00.887Z,89.62
2023-04-02T02:25:34.054Z,89.62
2023-04-02T02:28:11.529Z,89.65
2023-04-02T02:30:39.838Z,89.63
2023-04-02T02:33:20.463Z,89.60
2023-04-02T02:35:52.796Z,89.58
2023-04-02T02:38:39.952Z,89.62
2023-04-02T02:41:40.379Z,89.59
2023-04-02T02:44:08.472Z,89.58
2023-04-02T02:46:43.391Z,89.56
2023-04-02T02:49:15.388Z,89.56
2023-04-02T02:51:49.768Z,89.54
2023-04-02T02:54:21.788Z,89.51
2023-04-02T02:56:53.657Z,89.49
2023-04-02T02:59:22.700Z,89.45
2023-04-02T03:01:50.832Z,89.42
2023-04-02T03:04:23.154Z,89.41
2023-04-02T03:06:52.371Z,89.42
2023-04-02T03:09:34.322Z,89.42
2023-04-02T03:12:07.052Z,89.43
2023-04-02T03:14:51.365Z,89.45
2023-04-02T03:17:26.511Z,89.48
2023-04-02T03:19:57.542Z,89.50
2023-04-02T03:22:34.846Z,89.51
2023-04-02T03:25:20.839Z,89.52
2023-04-02T03:27:51.804Z,89.54
2023-04-02T03:30:38.672Z,89.53
2023-04-02T03:33:13.417Z,89.60
2023-04-02T03:35:45.615Z,89.54
2023-04-02T03:38:36.182Z,89.55
2023-04-02T03:41:14.986Z,89.55
2023-04-02T03:43:46.557Z,89.56
2023-04-02T03:46:20.625Z,89.57
2023-04-02T03:48:51.656Z,89.58
2023-04-02T03:51:20.123Z,89.58
2023-04-02T03:53:48.874Z,89.57
2023-04-02T03:56:30.766Z,89.60
2023-04-02T03:59:19.365Z,89.63
2023-04-02T04:02:10.743Z,89.56
2023-04-02T04:04:40.808Z,89.51
2023-04-02T04:07:21.699Z,89.52
2023-04-02T04:09:51.527Z,89.54
2023-04-02T04:12:25.522Z,89.63
2023-04-02T04:14:58.126Z,89.58
2023-04-02T04:17:48.193Z,89.58
2023-04-02T04:20:19.825Z,89.61
2023-04-02T04:22:51.585Z,89.65
2023-04-02T04:25:25.399Z,89.73
2023-04-02T04:28:10.098Z,89.71
2023-04-02T04:30:46.328Z,89.72
2023-04-02T04:33:20.490Z,89.72
2023-04-02T04:35:54.752Z,89.75
2023-04-02T04:38:31.931Z,89.76
2023-04-02T04:41:12.770Z,89.76
2023-04-02T04:43:51.548Z,89.78
2023-04-02T04:46:22.999Z,89.84
2023-04-02T04:48:58.301Z,89.85
2023-04-02T04:51:35.872Z,89.82
2023-04-02T04:54:03.988Z,89.81
2023-04-02T04:56:35.044Z,89.79
2023-04-02T04:59:25.848Z,89.78
2023-04-02T05:02:07.676Z,89.75
2023-04-02T05:04:38.489Z,89.72
2023-04-02T05:07:07.730Z,89.73
2023-04-02T05:10:00.661Z,89.76
2023-04-02T05:12:31.827Z,89.72
2023-04-02T05:15:02.837Z,89.71
2023-04-02T05:17:50.549Z,89.74
2023-04-02T05:20:24.729Z,89.79
2023-04-02T05:22:56.078Z,89.73
2023-04-02T05:25:30.409Z,89.82
2023-04-02T05:28:07.779Z,89.89
2023-04-02T05:30:43.757Z,89.94
2023-04-02T05:33:14.839Z,90.01
2023-04-02T05:35:48.927Z,90.04
2023-04-02T05:38:21.150Z,90.11
2023-04-02T05:40:53.207Z,90.16
2023-04-02T05:43:24.122Z,90.21
2023-04-02T05:45:57.651Z,90.30
2023-04-02T05:48:38.502Z,90.38
2023-04-02T05:51:12.158Z,90.48
2023-04-02T05:53:47.358Z,90.53
2023-04-02T05:56:25.432Z,90.57
2023-04-02T05:59:01.097Z,90.59
2023-04-02T06:01:35.864Z,90.54
2023-04-02T06:04:17.398Z,90.53
2023-04-02T06:07:18.194Z,90.54
2023-04-02T06:09:56.465Z,90.70
2023-04-02T06:12:28.720Z,90.68
2023-04-02T06:15:09.589Z,90.82
2023-04-02T06:17:53.646Z,90.73
2023-04-02T06:20:21.630Z,90.73
2023-04-02T06:23:01.988Z,90.46
2023-04-02T06:25:36.174Z,90.50
2023-04-02T06:28:24.476Z,90.64
2023-04-02T06:30:58.121Z,90.53
2023-04-02T06:33:35.105Z,90.25
2023-04-02T06:36:13.941Z,90.08
2023-04-02T06:38:43.128Z,89.36
2023-04-02T06:41:19.591Z,89.50
2023-04-02T06:44:32.632Z,89.54
2023-04-02T06:47:13.310Z,90.00
2023-04-02T06:50:01.475Z,89.70
2023-04-02T06:52:43.322Z,89.87
2023-04-02T06:55:20.513Z,90.27
2023-04-02T06:57:52.057Z,90.86
2023-04-02T07:00:35.600Z,90.24
2023-04-02T07:03:06.751Z,90.22
2023-04-02T07:05:35.549Z,90.41
2023-04-02T07:08:10.960Z,89.99
2023-04-02T07:10:38.957Z,89.83
2023-04-02T07:13:06.906Z,89.64
2023-04-02T07:15:35.169Z,89.33
2023-04-02T07:18:03.537Z,88.98
2023-04-02T07:20:35.294Z,89.12
2023-04-02T07:23:06.623Z,89.19
2023-04-02T07:25:34.705Z,89.41
2023-04-02T07:28:05.544Z,89.46
2023-04-02T07:30:33.684Z,89.38
2023-04-02T07:33:04.399Z,89.48
2023-04-02T07:35:32.593Z,89.99
2023-04-02T07:38:03.365Z,89.54
2023-04-02T07:40:31.188Z,89.64
2023-04-02T07:42:59.072Z,89.82
2023-04-02T07:45:27.030Z,89.93
2023-04-02T07:47:55.185Z,90.74
2023-04-02T07:50:23.185Z,90.28
2023-04-02T07:52:51.083Z,89.98
2023-04-02T07:55:19.027Z,89.85
2023-04-02T07:57:49.581Z,90.31
2023-04-02T08:00:18.066Z,90.13
2023-04-02T08:02:46.558Z,90.10
2023-04-02T08:05:14.537Z,89.98
2023-04-02T08:07:42.472Z,90.03
2023-04-02T08:10:11.900Z,89.83
2023-04-02T08:12:40.017Z,89.80
2023-04-02T08:15:08.166Z,89.69
2023-04-02T08:17:36.279Z,89.06
2023-04-02T08:20:04.568Z,89.23
2023-04-02T08:22:33.404Z,89.65
2023-04-02T08:25:03.965Z,89.92
2023-04-02T08:27:37.480Z,90.06
2023-04-02T08:30:06.477Z,89.96
2023-04-02T08:32:37.720Z,89.86
2023-04-02T08:35:06.316Z,89.82
2023-04-02T08:37:34.193Z,89.54
2023-04-02T08:40:02.309Z,89.13
2023-04-02T08:42:50.312Z,89.56
2023-04-02T08:45:44.636Z,89.15
2023-04-02T08:48:21.887Z,88.25
2023-04-02T08:50:52.761Z,87.43
2023-04-02T08:53:25.743Z,88.09
2023-04-02T08:55:58.145Z,87.23
2023-04-02T08:58:33.681Z,86.86
2023-04-02T09:01:03.424Z,87.21
2023-04-02T09:03:42.993Z,87.74
2023-04-02T09:06:16.687Z,87.54
2023-04-02T09:08:46.622Z,87.63
2023-04-02T09:11:20.744Z,87.90
2023-04-02T09:13:51.127Z,87.23
2023-04-02T09:16:20.092Z,87.34
2023-04-02T09:18:49.160Z,87.79
2023-04-02T09:21:32.525Z,88.53
2023-04-02T09:24:01.565Z,87.31
2023-04-02T09:26:32.692Z,87.88
2023-04-02T09:29:20.656Z,87.56
2023-04-02T09:31:53.753Z,86.93
2023-04-02T09:34:31.695Z,87.37
2023-04-02T09:37:19.624Z,88.05
2023-04-02T09:39:48.013Z,87.96
2023-04-02T09:42:51.524Z,86.60
2023-04-02T09:45:24.749Z,86.92
2023-04-02T09:47:58.096Z,87.36
2023-04-02T09:50:28.326Z,87.47
2023-04-02T09:52:56.181Z,86.88
2023-04-02T09:55:34.659Z,87.61
2023-04-02T09:58:26.987Z,87.10
2023-04-02T10:01:01.110Z,86.66
2023-04-02T10:03:42.895Z,87.35
2023-04-02T10:06:31.370Z,87.23
2023-04-02T10:09:18.514Z,87.09
2023-04-02T10:11:47.052Z,86.25
2023-04-02T10:14:35.342Z,85.99
2023-04-02T10:17:12.422Z,85.80
2023-04-02T10:19:42.490Z,86.08
2023-04-02T10:22:22.596Z,86.29
2023-04-02T10:24:53.943Z,86.39
2023-04-02T10:27:43.499Z,86.82
2023-04-02T10:30:34.366Z,88.00
2023-04-02T10:33:15.300Z,87.79
2023-04-02T10:36:08.519Z,87.12
2023-04-02T10:39:12.213Z,88.00
2023-04-02T10:41:46.523Z,87.69
2023-04-02T10:44:20.891Z,86.79
2023-04-02T10:46:55.379Z,86.54
2023-04-02T10:49:39.613Z,86.58
2023-04-02T10:52:20.111Z,87.08
2023-04-02T10:54:49.263Z,86.37
2023-04-02T10:57:32.652Z,85.64
2023-04-02T11:00:08.086Z,85.43
2023-04-02T11:02:39.217Z,84.98
2023-04-02T11:05:14.786Z,85.38
2023-04-02T11:07:51.888Z,85.09
2023-04-02T11:10:20.418Z,85.30
2023-04-02T11:12:55.112Z,84.51
2023-04-02T11:15:23.552Z,84.31
2023-04-02T11:17:54.382Z,84.54
2023-04-02T11:20:41.299Z,85.44
2023-04-02T11:23:11.366Z,86.08
2023-04-02T11:25:40.100Z,86.93
2023-04-02T11:28:20.466Z,86.98
2023-04-02T11:30:48.634Z,85.63
2023-04-02T11:33:38.200Z,86.37
2023-04-02T11:36:26.512Z,85.62
2023-04-02T11:38:57.628Z,85.13
2023-04-02T11:41:48.393Z,86.03
2023-04-02T11:44:23.716Z,87.02
2023-04-02T11:46:51.759Z,85.59
2023-04-02T11:49:36.441Z,86.89
2023-04-02T11:52:12.034Z,86.31
2023-04-02T11:54:40.686Z,85.98
2023-04-02T11:57:44.811Z,85.69
2023-04-02T12:00:23.597Z,85.60
2023-04-02T12:03:10.294Z,85.60
2023-04-02T12:05:49.082Z,86.05
2023-04-02T12:08:19.917Z,86.14
2023-04-02T12:10:58.989Z,85.08
2023-04-02T12:13:39.153Z,84.71
2023-04-02T12:16:14.451Z,85.36
2023-04-02T12:18:52.493Z,85.49
2023-04-02T12:21:22.576Z,85.25
2023-04-02T12:23:51.972Z,85.21
2023-04-02T12:26:31.233Z,84.12
2023-04-02T12:29:21.914Z,84.01
2023-04-02T12:31:50.079Z,83.99
2023-04-02T12:34:19.415Z,83.75
2023-04-02T12:36:54.860Z,84.35
2023-04-02T12:39:24.287Z,84.26
2023-04-02T12:41:53.012Z,84.97
2023-04-02T12:44:28.534Z,85.98
2023-04-02T12:46:59.071Z,88.25
2023-04-02T12:49:43.414Z,86.98
2023-04-02T12:52:16.109Z,85.04
2023-04-02T12:54:48.702Z,84.43
2023-04-02T12:57:30.722Z,84.23
2023-04-02T12:59:59.855Z,84.74
2023-04-02T13:02:29.233Z,85.45
2023-04-02T13:05:01.094Z,87.81
2023-04-02T13:07:33.097Z,87.29
2023-04-02T13:10:02.900Z,85.41
2023-04-02T13:12:36.837Z,86.35
2023-04-02T13:15:20.524Z,85.77
2023-04-02T13:18:01.813Z,86.06
2023-04-02T13:20:31.525Z,86.49
2023-04-02T13:23:00.226Z,86.30
2023-04-02T13:25:35.613Z,85.57
2023-04-02T13:28:03.495Z,85.71
2023-04-02T13:30:31.349Z,85.72
2023-04-02T13:32:59.233Z,87.20
2023-04-02T13:35:27.282Z,87.15
2023-04-02T13:37:57.831Z,85.35
2023-04-02T13:40:28.876Z,85.12
2023-04-02T13:42:56.792Z,84.59
2023-04-02T13:45:26.768Z,84.54
2023-04-02T13:47:57.919Z,85.74
2023-04-02T13:50:25.723Z,85.55
2023-04-02T13:52:54.061Z,85.62
2023-04-02T13:55:23.331Z,85.90
2023-04-02T13:57:54.853Z,85.94
2023-04-02T14:00:22.860Z,85.78
2023-04-02T14:02:59.920Z,86.17
2023-04-02T14:05:45.120Z,86.50
2023-04-02T14:08:25.386Z,86.34
2023-04-02T14:11:15.099Z,86.98
2023-04-02T14:13:46.023Z,86.20
2023-04-02T14:16:33.021Z,86.50
2023-04-02T14:19:19.981Z,86.39
2023-04-02T14:22:03.682Z,86.00
2023-04-02T14:24:44.428Z,86.24
2023-04-02T14:27:22.585Z,86.08
2023-04-02T14:30:09.365Z,86.02
2023-04-02T14:32:56.381Z,85.90
2023-04-02T14:35:30.338Z,86.08
2023-04-02T14:37:58.190Z,85.25
2023-04-02T14:40:37.310Z,86.24
2023-04-02T14:43:12.241Z,85.76
2023-04-02T14:45:40.179Z,87.21
2023-04-02T14:48:17.233Z,85.89
2023-04-02T14:50:48.963Z,85.94
2023-04-02T14:53:26.466Z,85.95
2023-04-02T14:55:57.676Z,86.28
2023-04-02T14:58:28.086Z,86.50
2023-04-02T15:01:06.326Z,87.96
2023-04-02T15:03:43.440Z,86.26
2023-04-02T15:06:15.227Z,85.04
2023-04-02T15:08:58.512Z,86.02
2023-04-02T15:11:50.846Z,84.56
2023-04-02T15:14:48.314Z,85.41
2023-04-02T15:17:16.169Z,85.80
2023-04-02T15:19:44.182Z,85.12
2023-04-02T15:22:12.178Z,84.71
2023-04-02T15:24:58.533Z,85.10
2023-04-02T15:27:39.687Z,86.16
2023-04-02T15:30:12.235Z,86.05
2023-04-02T15:32:40.691Z,85.42
2023-04-02T15:35:27.747Z,85.68
2023-04-02T15:38:14.498Z,84.28
2023-04-02T15:41:01.313Z,83.47
2023-04-02T15:43:55.639Z,83.88
2023-04-02T15:46:23.863Z,83.34
2023-04-02T15:48:57.573Z,83.86
2023-04-02T15:51:28.803Z,85.25
2023-04-02T15:54:13.401Z,84.27
2023-04-02T15:56:44.248Z,83.76
2023-04-02T15:59:24.648Z,83.98
2023-04-02T16:02:11.507Z,84.58
2023-04-02T16:04:51.963Z,83.87
2023-04-02T16:07:38.380Z,84.14
2023-04-02T16:10:06.363Z,84.43
2023-04-02T16:12:36.935Z,84.29
2023-04-02T16:15:13.993Z,83.98
2023-04-02T16:17:44.832Z,83.94
2023-04-02T16:20:16.889Z,83.83
2023-04-02T16:22:59.289Z,83.88
2023-04-02T16:25:31.559Z,83.67
2023-04-02T16:28:22.860Z,83.81
2023-04-02T16:30:58.029Z,84.44
2023-04-02T16:33:32.335Z,84.80
2023-04-02T16:36:03.875Z,85.82
2023-04-02T16:38:40.903Z,85.02
2023-04-02T16:41:11.872Z,85.06
2023-04-02T16:43:49.265Z,85.06
2023-04-02T16:46:38.390Z,84.76
2023-04-02T16:49:16.404Z,84.85
2023-04-02T16:52:09.402Z,85.71
2023-04-02T16:54:43.488Z,85.69
2023-04-02T16:57:17.897Z,85.05
2023-04-02T16:59:56.402Z,85.36
2023-04-02T17:02:24.933Z,85.63
2023-04-02T17:04:56.858Z,85.65
2023-04-02T17:07:33.074Z,86.24
2023-04-02T17:10:21.515Z,86.07
2023-04-02T17:12:54.438Z,86.26
2023-04-02T17:15:28.398Z,86.73
2023-04-02T17:18:00.975Z,87.29
2023-04-02T17:20:29.412Z,86.84
2023-04-02T17:22:58.279Z,86.89
2023-04-02T17:25:32.424Z,88.26
2023-04-02T17:28:01.708Z,86.97
2023-04-02T17:30:41.120Z,87.45
2023-04-02T17:33:16.316Z,87.02
2023-04-02T17:36:00.240Z,87.98
2023-04-02T17:38:51.132Z,87.20
2023-04-02T17:41:25.576Z,87.21
2023-04-02T17:43:59.540Z,87.42
2023-04-02T17:46:46.582Z,88.12
2023-04-02T17:49:20.558Z,88.15
2023-04-02T17:51:57.494Z,87.75
2023-04-02T17:54:28.951Z,88.53
2023-04-02T17:57:12.943Z,87.23
2023-04-02T17:59:50.834Z,87.97
2023-04-02T18:02:39.090Z,88.00
2023-04-02T18:05:08.555Z,87.91
2023-04-02T18:07:46.549Z,87.22
2023-04-02T18:10:41.040Z,87.27
2023-04-02T18:13:33.027Z,87.14
2023-04-02T18:16:31.208Z,87.14
2023-04-02T18:19:02.673Z,88.01
2023-04-02T18:21:49.737Z,87.26
2023-04-02T18:24:39.821Z,87.01
2023-04-02T18:27:27.310Z,87.25
2023-04-02T18:30:22.711Z,86.95
2023-04-02T18:33:12.818Z,87.99
2023-04-02T18:36:11.192Z,87.16
2023-04-02T18:39:02.006Z,87.14
2023-04-02T18:42:06.341Z,87.39
2023-04-02T18:44:47.637Z,87.14
2023-04-02T18:47:24.523Z,87.14
2023-04-02T18:50:11.789Z,88.57
2023-04-02T18:52:41.620Z,87.47
2023-04-02T18:55:18.400Z,87.23
2023-04-02T18:57:51.528Z,87.00
2023-04-02T19:00:26.226Z,86.71
2023-04-02T19:03:26.196Z,86.77
2023-04-02T19:06:16.110Z,86.63
2023-04-02T19:08:48.293Z,86.62
2023-04-02T19:11:18.029Z,86.56
2023-04-02T19:13:45.988Z,86.98
2023-04-02T19:16:14.326Z,87.05
2023-04-02T19:18:42.725Z,87.15
2023-04-02T19:21:29.847Z,88.01
2023-04-02T19:24:16.689Z,87.63
2023-04-02T19:26:52.825Z,87.60
2023-04-02T19:29:21.057Z,87.71
2023-04-02T19:32:00.388Z,87.78
2023-04-02T19:34:37.824Z,88.15
2023-04-02T19:37:11.285Z,88.13
2023-04-02T19:39:51.818Z,88.78
2023-04-02T19:42:20.009Z,88.08
2023-04-02T19:44:50.192Z,88.20
2023-04-02T19:47:18.806Z,88.20
2023-04-02T19:49:47.276Z,88.23
2023-04-02T19:52:15.941Z,88.17
2023-04-02T19:54:49.624Z,88.21
2023-04-02T19:57:17.915Z,88.34
2023-04-02T19:59:45.935Z,88.30
2023-04-02T20:02:13.977Z,88.14
2023-04-02T20:04:42.428Z,88.68
2023-04-02T20:07:12.427Z,88.18
2023-04-02T20:09:40.513Z,88.09
2023-04-02T20:12:08.525Z,88.49
2023-04-02T20:14:36.310Z,88.26
2023-04-02T20:17:04.461Z,88.21
2023-04-02T20:19:33.080Z,88.34
2023-04-02T20:22:00.959Z,88.45
2023-04-02T20:24:28.872Z,88.25
2023-04-02T20:26:56.970Z,88.12
2023-04-02T20:29:24.846Z,88.29
2023-04-02T20:31:52.812Z,88.43
2023-04-02T20:34:21.135Z,88.48
2023-04-02T20:36:49.150Z,88.51
2023-04-02T20:39:17.227Z,88.50
2023-04-02T20:41:45.774Z,88.54
2023-04-02T20:44:13.914Z,88.49
2023-04-02T20:46:44.240Z,88.50
2023-04-02T20:49:15.458Z,88.55
2023-04-02T20:51:43.430Z,88.35
2023-04-02T20:54:11.331Z,88.03
2023-04-02T20:56:39.314Z,88.26
2023-04-02T20:59:07.186Z,88.16
2023-04-02T21:01:35.155Z,88.38
2023-04-02T21:04:03.646Z,88.59
2023-04-02T21:06:33.848Z,88.81
2023-04-02T21:09:03.149Z,88.78
2023-04-02T21:11:31.021Z,88.75
2023-04-02T21:13:58.752Z,88.70
2023-04-02T21:16:28.383Z,88.52
2023-04-02T21:18:57.042Z,88.58
2023-04-02T21:21:25.137Z,88.66
2023-04-02T21:23:54.750Z,88.70
2023-04-02T21:26:23.165Z,88.20
2023-04-02T21:29:01.513Z,88.31
2023-04-02T21:31:30.543Z,88.37
2023-04-02T21:33:58.732Z,88.10
2023-04-02T21:36:28.225Z,88.05
2023-04-02T21:38:57.672Z,88.21
2023-04-02T21:41:29.071Z,88.31
2023-04-02T21:44:00.088Z,88.35
2023-04-02T21:46:30.529Z,88.39
2023-04-02T21:49:09.789Z,88.26
2023-04-02T21:51:38.609Z,88.28
2023-04-02T21:54:10.713Z,88.18
2023-04-02T21:56:52.538Z,88.28
2023-04-02T21:59:44.866Z,88.43
2023-04-02T22:02:26.992Z,88.70
2023-04-02T22:05:15.965Z,88.82
2023-04-02T22:08:04.635Z,89.06
2023-04-02T22:10:35.618Z,89.12
2023-04-02T22:13:21.133Z,89.02
2023-04-02T22:16:13.968Z,89.08
2023-04-02T22:19:06.620Z,89.10
2023-04-02T22:21:40.882Z,89.11
2023-04-02T22:24:32.855Z,89.20
2023-04-02T22:27:03.124Z,89.23
2023-04-02T22:29:31.024Z,89.24
2023-04-02T22:32:04.351Z,89.26
2023-04-02T22:34:47.016Z,89.25
2023-04-02T22:37:14.870Z,89.28
2023-04-02T22:39:42.830Z,89.14
2023-04-02T22:42:33.846Z,89.10
2023-04-02T22:45:04.857Z,89.37
2023-04-02T22:47:32.859Z,89.10
2023-04-02T22:50:08.343Z,88.90
2023-04-02T22:52:36.260Z,89.00
2023-04-02T22:55:07.723Z,89.11
2023-04-02T22:57:35.795Z,89.09
2023-04-02T23:00:10.230Z,89.19
2023-04-02T23:02:38.726Z,89.23
2023-04-02T23:05:07.452Z,89.24
2023-04-02T23:07:35.650Z,89.34
2023-04-02T23:10:05.804Z,89.38
2023-04-02T23:12:36.993Z,89.43
2023-04-02T23:15:05.068Z,89.38
2023-04-02T23:17:32.977Z,89.29
2023-04-02T23:20:00.987Z,89.39
2023-04-02T23:22:28.919Z,89.44
2023-04-02T23:24:56.927Z,89.61
2023-04-02T23:27:24.907Z,89.55
2023-04-02T23:29:52.681Z,89.43
2023-04-02T23:32:20.441Z,89.32
2023-04-02T23:34:50.709Z,89.12
2023-04-02T23:37:18.496Z,89.12
2023-04-02T23:39:55.417Z,89.16
2023-04-02T23:42:23.385Z,89.16
2023-04-02T23:44:51.251Z,89.07
2023-04-02T23:47:19.096Z,89.12
2023-04-02T23:49:46.896Z,88.77
2023-04-02T23:52:17.782Z,88.88
2023-04-02T23:54:45.746Z,88.94
2023-04-02T23:57:13.788Z,88.87
2023-04-02T23:59:41.668Z,88.88
